sensor_id;sensor_type;location;lat;lon;timestamp;P1;durP1;ratioP1;P2;durP2;ratioP2
6131;SDS011;3097;42.692;23.278;2022-08-19T00:00:36;6.63;;;6.13;;
6131;SDS011;3097;42.692;23.278;2022-08-19T00:03:02;6.03;;;5.53;;
6131;SDS011;3097;42.692;23.278;2022-08-19T00:05:28;6.97;;;6.37;;
6131;SDS011;3097;42.692;23.278;2022-08-19T00:07:54;6.40;;;5.90;;
6131;SDS011;3097;42.692;23.278;2022-08-19T00:10:19;6.47;;;5.97;;
6131;SDS011;3097;42.692;23.278;2022-08-19T00:12:45;6.70;;;6.20;;
6131;SDS011;3097;42.692;23.278;2022-08-19T00:15:13;7.13;;;6.47;;
6131;SDS011;3097;42.692;23.278;2022-08-19T00:17:42;7.03;;;6.30;;
6131;SDS011;3097;42.692;23.278;2022-08-19T00:20:12;7.43;;;6.77;;
6131;SDS011;3097;42.692;23.278;2022-08-19T00:22:42;7.10;;;6.40;;
6131;SDS011;3097;42.692;23.278;2022-08-19T00:25:08;7.43;;;6.73;;
6131;SDS011;3097;42.692;23.278;2022-08-19T00:27:34;6.83;;;6.23;;
6131;SDS011;3097;42.692;23.278;2022-08-19T00:29:59;7.17;;;6.53;;
6131;SDS011;3097;42.692;23.278;2022-08-19T00:32:27;7.20;;;6.57;;
6131;SDS011;3097;42.692;23.278;2022-08-19T00:34:52;6.97;;;6.47;;
6131;SDS011;3097;42.692;23.278;2022-08-19T00:37:22;7.13;;;6.53;;
6131;SDS011;3097;42.692;23.278;2022-08-19T00:39:48;7.07;;;6.37;;
6131;SDS011;3097;42.692;23.278;2022-08-19T00:42:16;7.07;;;6.43;;
6131;SDS011;3097;42.692;23.278;2022-08-19T00:44:42;7.10;;;6.43;;
6131;SDS011;3097;42.692;23.278;2022-08-19T00:47:08;7.37;;;6.77;;
6131;SDS011;3097;42.692;23.278;2022-08-19T00:49:35;7.17;;;6.57;;
6131;SDS011;3097;42.692;23.278;2022-08-19T00:52:04;7.03;;;6.43;;
6131;SDS011;3097;42.692;23.278;2022-08-19T00:54:34;7.47;;;6.83;;
6131;SDS011;3097;42.692;23.278;2022-08-19T00:57:02;7.07;;;6.47;;
6131;SDS011;3097;42.692;23.278;2022-08-19T00:59:31;6.80;;;6.20;;
6131;SDS011;3097;42.692;23.278;2022-08-19T01:01:57;7.57;;;6.87;;
6131;SDS011;3097;42.692;23.278;2022-08-19T01:04:22;7.23;;;6.63;;
6131;SDS011;3097;42.692;23.278;2022-08-19T01:06:48;7.10;;;6.50;;
6131;SDS011;3097;42.692;23.278;2022-08-19T01:09:13;7.80;;;7.10;;
6131;SDS011;3097;42.692;23.278;2022-08-19T01:11:40;7.03;;;6.53;;
6131;SDS011;3097;42.692;23.278;2022-08-19T01:14:08;6.83;;;6.23;;
6131;SDS011;3097;42.692;23.278;2022-08-19T01:16:35;7.90;;;7.10;;
6131;SDS011;3097;42.692;23.278;2022-08-19T01:19:02;9.30;;;6.87;;
6131;SDS011;3097;42.692;23.278;2022-08-19T01:21:38;7.47;;;6.77;;
6131;SDS011;3097;42.692;23.278;2022-08-19T01:24:12;7.30;;;6.60;;
6131;SDS011;3097;42.692;23.278;2022-08-19T01:26:38;7.60;;;7.00;;
6131;SDS011;3097;42.692;23.278;2022-08-19T01:29:06;7.27;;;6.57;;
6131;SDS011;3097;42.692;23.278;2022-08-19T01:31:33;7.50;;;6.80;;
6131;SDS011;3097;42.692;23.278;2022-08-19T01:33:59;7.03;;;6.43;;
6131;SDS011;3097;42.692;23.278;2022-08-19T01:36:27;7.30;;;6.70;;
6131;SDS011;3097;42.692;23.278;2022-08-19T01:38:56;7.27;;;6.67;;
6131;SDS011;3097;42.692;23.278;2022-08-19T01:41:23;7.03;;;6.40;;
6131;SDS011;3097;42.692;23.278;2022-08-19T01:43:49;10.33;;;9.23;;
6131;SDS011;3097;42.692;23.278;2022-08-19T01:46:16;10.93;;;8.90;;
6131;SDS011;3097;42.692;23.278;2022-08-19T01:48:43;13.93;;;10.63;;
6131;SDS011;3097;42.692;23.278;2022-08-19T01:51:09;15.70;;;10.57;;
6131;SDS011;3097;42.692;23.278;2022-08-19T01:53:36;12.73;;;10.40;;
6131;SDS011;3097;42.692;23.278;2022-08-19T01:56:02;15.77;;;10.50;;
6131;SDS011;3097;42.692;23.278;2022-08-19T01:58:38;12.80;;;10.47;;
6131;SDS011;3097;42.692;23.278;2022-08-19T02:01:11;10.70;;;8.77;;
6131;SDS011;3097;42.692;23.278;2022-08-19T02:03:37;12.37;;;8.97;;
6131;SDS011;3097;42.692;23.278;2022-08-19T02:06:03;9.70;;;8.70;;
6131;SDS011;3097;42.692;23.278;2022-08-19T02:08:30;9.23;;;8.23;;
6131;SDS011;3097;42.692;23.278;2022-08-19T02:10:57;10.53;;;8.40;;
6131;SDS011;3097;42.692;23.278;2022-08-19T02:13:23;10.67;;;9.20;;
6131;SDS011;3097;42.692;23.278;2022-08-19T02:15:49;9.27;;;8.23;;
6131;SDS011;3097;42.692;23.278;2022-08-19T02:18:15;10.03;;;8.60;;
6131;SDS011;3097;42.692;23.278;2022-08-19T02:20:41;9.83;;;8.67;;
6131;SDS011;3097;42.692;23.278;2022-08-19T02:23:08;9.70;;;7.83;;
6131;SDS011;3097;42.692;23.278;2022-08-19T02:25:35;9.50;;;7.80;;
6131;SDS011;3097;42.692;23.278;2022-08-19T02:28:01;8.83;;;7.77;;
6131;SDS011;3097;42.692;23.278;2022-08-19T02:30:27;8.67;;;7.87;;
6131;SDS011;3097;42.692;23.278;2022-08-19T02:32:53;9.00;;;8.10;;
6131;SDS011;3097;42.692;23.278;2022-08-19T02:35:18;8.30;;;7.50;;
6131;SDS011;3097;42.692;23.278;2022-08-19T02:37:44;8.57;;;7.73;;
6131;SDS011;3097;42.692;23.278;2022-08-19T02:40:28;8.77;;;7.97;;
6131;SDS011;3097;42.692;23.278;2022-08-19T02:42:55;8.07;;;7.27;;
6131;SDS011;3097;42.692;23.278;2022-08-19T02:45:21;9.80;;;7.47;;
6131;SDS011;3097;42.692;23.278;2022-08-19T02:47:46;9.30;;;7.70;;
6131;SDS011;3097;42.692;23.278;2022-08-19T02:50:12;7.83;;;7.13;;
6131;SDS011;3097;42.692;23.278;2022-08-19T02:52:38;7.87;;;7.10;;
6131;SDS011;3097;42.692;23.278;2022-08-19T02:55:04;8.13;;;7.40;;
6131;SDS011;3097;42.692;23.278;2022-08-19T02:57:30;7.33;;;6.73;;
6131;SDS011;3097;42.692;23.278;2022-08-19T02:59:56;7.67;;;7.07;;
6131;SDS011;3097;42.692;23.278;2022-08-19T03:02:22;7.63;;;7.00;;
6131;SDS011;3097;42.692;23.278;2022-08-19T03:04:48;7.07;;;6.47;;
6131;SDS011;3097;42.692;23.278;2022-08-19T03:07:14;7.60;;;7.00;;
6131;SDS011;3097;42.692;23.278;2022-08-19T03:09:41;7.70;;;7.10;;
6131;SDS011;3097;42.692;23.278;2022-08-19T03:12:07;7.30;;;6.60;;
6131;SDS011;3097;42.692;23.278;2022-08-19T03:14:34;7.60;;;6.90;;
6131;SDS011;3097;42.692;23.278;2022-08-19T03:16:59;8.80;;;7.07;;
6131;SDS011;3097;42.692;23.278;2022-08-19T03:19:25;8.33;;;7.53;;
6131;SDS011;3097;42.692;23.278;2022-08-19T03:21:52;8.17;;;7.47;;
6131;SDS011;3097;42.692;23.278;2022-08-19T03:24:18;7.70;;;7.00;;
6131;SDS011;3097;42.692;23.278;2022-08-19T03:26:46;8.40;;;7.60;;
6131;SDS011;3097;42.692;23.278;2022-08-19T03:29:14;8.10;;;7.40;;
6131;SDS011;3097;42.692;23.278;2022-08-19T03:31:41;8.40;;;7.60;;
6131;SDS011;3097;42.692;23.278;2022-08-19T03:34:09;8.27;;;7.57;;
6131;SDS011;3097;42.692;23.278;2022-08-19T03:36:36;8.07;;;7.37;;
6131;SDS011;3097;42.692;23.278;2022-08-19T03:39:03;8.13;;;7.33;;
6131;SDS011;3097;42.692;23.278;2022-08-19T03:41:30;7.97;;;7.30;;
6131;SDS011;3097;42.692;23.278;2022-08-19T03:43:57;8.40;;;7.70;;
6131;SDS011;3097;42.692;23.278;2022-08-19T03:46:27;8.40;;;7.70;;
6131;SDS011;3097;42.692;23.278;2022-08-19T03:48:56;8.60;;;7.90;;
6131;SDS011;3097;42.692;23.278;2022-08-19T03:51:27;8.63;;;7.77;;
6131;SDS011;3097;42.692;23.278;2022-08-19T03:53:59;10.93;;;8.50;;
6131;SDS011;3097;42.692;23.278;2022-08-19T03:56:26;9.07;;;8.17;;
6131;SDS011;3097;42.692;23.278;2022-08-19T03:58:53;10.47;;;8.13;;
6131;SDS011;3097;42.692;23.278;2022-08-19T04:01:22;9.17;;;8.27;;
6131;SDS011;3097;42.692;23.278;2022-08-19T04:03:51;14.30;;;11.63;;
6131;SDS011;3097;42.692;23.278;2022-08-19T04:06:19;11.50;;;10.07;;
6131;SDS011;3097;42.692;23.278;2022-08-19T04:08:47;18.63;;;12.30;;
6131;SDS011;3097;42.692;23.278;2022-08-19T04:11:16;10.07;;;8.70;;
6131;SDS011;3097;42.692;23.278;2022-08-19T04:13:46;11.37;;;8.93;;
6131;SDS011;3097;42.692;23.278;2022-08-19T04:16:12;13.23;;;9.83;;
6131;SDS011;3097;42.692;23.278;2022-08-19T04:18:37;11.60;;;9.63;;
6131;SDS011;3097;42.692;23.278;2022-08-19T04:21:05;10.00;;;8.43;;
6131;SDS011;3097;42.692;23.278;2022-08-19T04:23:32;9.73;;;8.83;;
6131;SDS011;3097;42.692;23.278;2022-08-19T04:25:58;11.87;;;8.43;;
6131;SDS011;3097;42.692;23.278;2022-08-19T04:28:24;9.20;;;8.40;;
6131;SDS011;3097;42.692;23.278;2022-08-19T04:30:51;12.63;;;8.90;;
6131;SDS011;3097;42.692;23.278;2022-08-19T04:33:18;9.80;;;8.80;;
6131;SDS011;3097;42.692;23.278;2022-08-19T04:35:48;10.47;;;8.50;;
6131;SDS011;3097;42.692;23.278;2022-08-19T04:38:15;9.37;;;8.20;;
6131;SDS011;3097;42.692;23.278;2022-08-19T04:40:43;9.93;;;8.73;;
6131;SDS011;3097;42.692;23.278;2022-08-19T04:43:30;10.00;;;9.10;;
6131;SDS011;3097;42.692;23.278;2022-08-19T04:45:56;9.50;;;8.60;;
6131;SDS011;3097;42.692;23.278;2022-08-19T04:48:22;10.87;;;9.40;;
6131;SDS011;3097;42.692;23.278;2022-08-19T04:50:55;10.13;;;9.07;;
6131;SDS011;3097;42.692;23.278;2022-08-19T04:53:28;9.90;;;8.93;;
6131;SDS011;3097;42.692;23.278;2022-08-19T04:55:55;9.80;;;8.87;;
6131;SDS011;3097;42.692;23.278;2022-08-19T04:58:23;8.83;;;7.93;;
6131;SDS011;3097;42.692;23.278;2022-08-19T05:00:49;9.07;;;8.27;;
6131;SDS011;3097;42.692;23.278;2022-08-19T05:03:15;8.90;;;8.10;;
6131;SDS011;3097;42.692;23.278;2022-08-19T05:05:43;9.37;;;8.47;;
6131;SDS011;3097;42.692;23.278;2022-08-19T05:08:09;8.80;;;8.00;;
6131;SDS011;3097;42.692;23.278;2022-08-19T05:10:36;8.60;;;7.87;;
6131;SDS011;3097;42.692;23.278;2022-08-19T05:13:03;8.40;;;7.60;;
6131;SDS011;3097;42.692;23.278;2022-08-19T05:15:29;7.77;;;7.17;;
6131;SDS011;3097;42.692;23.278;2022-08-19T05:17:59;7.37;;;6.87;;
6131;SDS011;3097;42.692;23.278;2022-08-19T05:20:43;7.93;;;7.17;;
6131;SDS011;3097;42.692;23.278;2022-08-19T05:23:27;7.60;;;7.10;;
6131;SDS011;3097;42.692;23.278;2022-08-19T05:25:52;7.85;;;7.35;;
6131;SDS011;3097;42.692;23.278;2022-08-19T05:28:18;8.43;;;7.72;;
6131;SDS011;3097;42.692;23.278;2022-08-19T05:30:45;7.75;;;7.05;;
6131;SDS011;3097;42.692;23.278;2022-08-19T05:33:11;8.15;;;7.45;;
6131;SDS011;3097;42.692;23.278;2022-08-19T05:35:38;7.43;;;6.82;;
6131;SDS011;3097;42.692;23.278;2022-08-19T05:38:05;8.60;;;7.80;;
6131;SDS011;3097;42.692;23.278;2022-08-19T05:40:36;9.00;;;8.30;;
6131;SDS011;3097;42.692;23.278;2022-08-19T05:43:04;8.95;;;8.25;;
6131;SDS011;3097;42.692;23.278;2022-08-19T05:45:30;8.77;;;8.18;;
6131;SDS011;3097;42.692;23.278;2022-08-19T05:47:56;9.60;;;8.90;;
6131;SDS011;3097;42.692;23.278;2022-08-19T05:50:23;8.80;;;8.18;;
6131;SDS011;3097;42.692;23.278;2022-08-19T05:52:51;9.90;;;9.20;;
6131;SDS011;3097;42.692;23.278;2022-08-19T05:55:17;9.82;;;8.90;;
6131;SDS011;3097;42.692;23.278;2022-08-19T05:57:45;10.05;;;9.25;;
6131;SDS011;3097;42.692;23.278;2022-08-19T06:00:11;9.98;;;9.00;;
6131;SDS011;3097;42.692;23.278;2022-08-19T06:02:37;9.48;;;8.75;;
6131;SDS011;3097;42.692;23.278;2022-08-19T06:05:04;9.35;;;8.65;;
6131;SDS011;3097;42.692;23.278;2022-08-19T06:07:32;10.15;;;9.15;;
6131;SDS011;3097;42.692;23.278;2022-08-19T06:09:57;10.32;;;9.43;;
6131;SDS011;3097;42.692;23.278;2022-08-19T06:12:23;10.13;;;9.30;;
6131;SDS011;3097;42.692;23.278;2022-08-19T06:14:53;9.13;;;8.32;;
6131;SDS011;3097;42.692;23.278;2022-08-19T06:17:20;9.10;;;8.40;;
6131;SDS011;3097;42.692;23.278;2022-08-19T06:19:47;8.30;;;7.65;;
6131;SDS011;3097;42.692;23.278;2022-08-19T06:22:14;9.27;;;8.48;;
6131;SDS011;3097;42.692;23.278;2022-08-19T06:24:41;8.93;;;8.23;;
6131;SDS011;3097;42.692;23.278;2022-08-19T06:27:06;9.20;;;8.50;;
6131;SDS011;3097;42.692;23.278;2022-08-19T06:29:32;9.75;;;9.05;;
6131;SDS011;3097;42.692;23.278;2022-08-19T06:31:59;8.55;;;7.82;;
6131;SDS011;3097;42.692;23.278;2022-08-19T06:34:26;8.38;;;7.85;;
6131;SDS011;3097;42.692;23.278;2022-08-19T06:36:53;8.48;;;7.88;;
6131;SDS011;3097;42.692;23.278;2022-08-19T06:39:21;8.82;;;8.02;;
6131;SDS011;3097;42.692;23.278;2022-08-19T06:41:52;9.13;;;8.43;;
6131;SDS011;3097;42.692;23.278;2022-08-19T06:44:20;12.20;;;11.10;;
6131;SDS011;3097;42.692;23.278;2022-08-19T06:46:48;8.93;;;8.30;;
6131;SDS011;3097;42.692;23.278;2022-08-19T06:49:14;8.90;;;8.13;;
6131;SDS011;3097;42.692;23.278;2022-08-19T06:51:46;8.68;;;7.97;;
6131;SDS011;3097;42.692;23.278;2022-08-19T06:54:14;9.55;;;8.77;;
6131;SDS011;3097;42.692;23.278;2022-08-19T06:56:43;9.32;;;8.63;;
6131;SDS011;3097;42.692;23.278;2022-08-19T06:59:11;9.90;;;9.00;;
6131;SDS011;3097;42.692;23.278;2022-08-19T07:01:40;10.05;;;9.18;;
6131;SDS011;3097;42.692;23.278;2022-08-19T07:04:10;10.40;;;9.48;;
6131;SDS011;3097;42.692;23.278;2022-08-19T07:06:37;9.50;;;8.70;;
6131;SDS011;3097;42.692;23.278;2022-08-19T07:09:03;9.35;;;8.65;;
6131;SDS011;3097;42.692;23.278;2022-08-19T07:11:30;9.35;;;8.63;;
6131;SDS011;3097;42.692;23.278;2022-08-19T07:13:56;9.38;;;8.55;;
6131;SDS011;3097;42.692;23.278;2022-08-19T07:16:22;9.20;;;8.57;;
6131;SDS011;3097;42.692;23.278;2022-08-19T07:18:48;10.77;;;9.77;;
6131;SDS011;3097;42.692;23.278;2022-08-19T07:21:16;10.07;;;9.27;;
6131;SDS011;3097;42.692;23.278;2022-08-19T07:23:44;9.93;;;9.13;;
6131;SDS011;3097;42.692;23.278;2022-08-19T07:26:15;8.77;;;8.18;;
6131;SDS011;3097;42.692;23.278;2022-08-19T07:28:52;9.57;;;8.77;;
6131;SDS011;3097;42.692;23.278;2022-08-19T07:31:20;9.48;;;8.68;;
6131;SDS011;3097;42.692;23.278;2022-08-19T07:33:47;9.30;;;8.25;;
6131;SDS011;3097;42.692;23.278;2022-08-19T07:36:16;9.18;;;8.48;;
6131;SDS011;3097;42.692;23.278;2022-08-19T07:38:46;9.38;;;8.68;;
6131;SDS011;3097;42.692;23.278;2022-08-19T07:41:14;8.55;;;7.93;;
6131;SDS011;3097;42.692;23.278;2022-08-19T07:43:48;8.52;;;7.90;;
6131;SDS011;3097;42.692;23.278;2022-08-19T07:46:14;8.73;;;8.13;;
6131;SDS011;3097;42.692;23.278;2022-08-19T07:48:43;8.82;;;8.18;;
6131;SDS011;3097;42.692;23.278;2022-08-19T07:51:13;8.25;;;7.65;;
6131;SDS011;3097;42.692;23.278;2022-08-19T07:53:41;7.72;;;7.22;;
6131;SDS011;3097;42.692;23.278;2022-08-19T07:56:08;8.13;;;7.50;;
6131;SDS011;3097;42.692;23.278;2022-08-19T07:58:35;8.70;;;8.00;;
6131;SDS011;3097;42.692;23.278;2022-08-19T08:01:03;8.52;;;7.88;;
6131;SDS011;3097;42.692;23.278;2022-08-19T08:03:30;9.43;;;8.60;;
6131;SDS011;3097;42.692;23.278;2022-08-19T08:06:14;8.60;;;7.90;;
6131;SDS011;3097;42.692;23.278;2022-08-19T08:08:59;7.78;;;7.18;;
6131;SDS011;3097;42.692;23.278;2022-08-19T08:11:50;7.60;;;7.10;;
6131;SDS011;3097;42.692;23.278;2022-08-19T08:14:22;7.72;;;7.22;;
6131;SDS011;3097;42.692;23.278;2022-08-19T08:16:50;7.25;;;6.85;;
6131;SDS011;3097;42.692;23.278;2022-08-19T08:19:17;8.20;;;7.60;;
6131;SDS011;3097;42.692;23.278;2022-08-19T08:21:44;7.07;;;6.57;;
6131;SDS011;3097;42.692;23.278;2022-08-19T08:24:11;7.72;;;7.13;;
6131;SDS011;3097;42.692;23.278;2022-08-19T08:26:37;7.55;;;6.95;;
6131;SDS011;3097;42.692;23.278;2022-08-19T08:29:02;7.28;;;6.68;;
6131;SDS011;3097;42.692;23.278;2022-08-19T08:31:28;8.52;;;7.82;;
6131;SDS011;3097;42.692;23.278;2022-08-19T08:33:54;10.48;;;9.40;;
6131;SDS011;3097;42.692;23.278;2022-08-19T08:36:19;7.35;;;6.85;;
6131;SDS011;3097;42.692;23.278;2022-08-19T08:38:45;7.78;;;6.97;;
6131;SDS011;3097;42.692;23.278;2022-08-19T08:41:20;7.03;;;6.53;;
6131;SDS011;3097;42.692;23.278;2022-08-19T08:43:53;7.10;;;6.60;;
6131;SDS011;3097;42.692;23.278;2022-08-19T08:52:11;6.75;;;6.28;;
6131;SDS011;3097;42.692;23.278;2022-08-19T08:54:43;6.22;;;5.82;;
6131;SDS011;3097;42.692;23.278;2022-08-19T08:57:26;6.63;;;6.22;;
6131;SDS011;3097;42.692;23.278;2022-08-19T08:59:58;6.45;;;5.95;;
6131;SDS011;3097;42.692;23.278;2022-08-19T09:02:29;5.60;;;5.30;;
6131;SDS011;3097;42.692;23.278;2022-08-19T09:04:54;5.88;;;5.47;;
6131;SDS011;3097;42.692;23.278;2022-08-19T09:10:10;6.65;;;6.15;;
6131;SDS011;3097;42.692;23.278;2022-08-19T09:15:47;5.72;;;5.43;;
6131;SDS011;3097;42.692;23.278;2022-08-19T09:18:13;5.85;;;5.55;;
6131;SDS011;3097;42.692;23.278;2022-08-19T09:20:40;5.28;;;4.97;;
6131;SDS011;3097;42.692;23.278;2022-08-19T09:23:05;5.55;;;5.05;;
6131;SDS011;3097;42.692;23.278;2022-08-19T09:25:31;5.40;;;5.00;;
6131;SDS011;3097;42.692;23.278;2022-08-19T09:27:57;4.78;;;4.38;;
6131;SDS011;3097;42.692;23.278;2022-08-19T09:30:28;5.05;;;4.78;;
6131;SDS011;3097;42.692;23.278;2022-08-19T09:32:55;3.90;;;3.70;;
6131;SDS011;3097;42.692;23.278;2022-08-19T09:35:22;4.18;;;3.97;;
6131;SDS011;3097;42.692;23.278;2022-08-19T09:37:49;4.25;;;4.05;;
6131;SDS011;3097;42.692;23.278;2022-08-19T09:40:15;3.88;;;3.67;;
6131;SDS011;3097;42.692;23.278;2022-08-19T09:42:42;4.65;;;4.40;;
6131;SDS011;3097;42.692;23.278;2022-08-19T09:45:09;4.75;;;4.47;;
6131;SDS011;3097;42.692;23.278;2022-08-19T09:47:35;4.40;;;4.10;;
6131;SDS011;3097;42.692;23.278;2022-08-19T09:50:04;4.18;;;3.97;;
6131;SDS011;3097;42.692;23.278;2022-08-19T09:52:32;4.90;;;4.60;;
6131;SDS011;3097;42.692;23.278;2022-08-19T09:54:58;4.22;;;4.00;;
6131;SDS011;3097;42.692;23.278;2022-08-19T09:57:24;4.22;;;4.00;;
6131;SDS011;3097;42.692;23.278;2022-08-19T09:59:49;4.25;;;4.03;;
6131;SDS011;3097;42.692;23.278;2022-08-19T10:02:15;3.90;;;3.70;;
6131;SDS011;3097;42.692;23.278;2022-08-19T10:04:40;3.90;;;3.70;;
6131;SDS011;3097;42.692;23.278;2022-08-19T10:07:24;4.00;;;3.67;;
6131;SDS011;3097;42.692;23.278;2022-08-19T10:09:50;3.92;;;3.72;;
6131;SDS011;3097;42.692;23.278;2022-08-19T10:12:16;3.90;;;3.70;;
6131;SDS011;3097;42.692;23.278;2022-08-19T10:14:41;3.95;;;3.75;;
6131;SDS011;3097;42.692;23.278;2022-08-19T10:17:07;4.53;;;4.25;;
6131;SDS011;3097;42.692;23.278;2022-08-19T10:19:33;4.68;;;4.38;;
6131;SDS011;3097;42.692;23.278;2022-08-19T10:22:04;4.78;;;4.47;;
6131;SDS011;3097;42.692;23.278;2022-08-19T10:24:31;5.05;;;4.75;;
6131;SDS011;3097;42.692;23.278;2022-08-19T10:26:59;5.03;;;4.72;;
6131;SDS011;3097;42.692;23.278;2022-08-19T10:29:28;4.90;;;4.60;;
6131;SDS011;3097;42.692;23.278;2022-08-19T10:31:54;5.95;;;5.55;;
6131;SDS011;3097;42.692;23.278;2022-08-19T10:34:21;5.35;;;5.03;;
6131;SDS011;3097;42.692;23.278;2022-08-19T10:36:46;5.28;;;4.97;;
6131;SDS011;3097;42.692;23.278;2022-08-19T10:39:13;4.75;;;4.45;;
6131;SDS011;3097;42.692;23.278;2022-08-19T10:41:39;5.10;;;4.80;;
6131;SDS011;3097;42.692;23.278;2022-08-19T10:44:07;5.63;;;5.10;;
6131;SDS011;3097;42.692;23.278;2022-08-19T10:46:35;5.53;;;5.10;;
6131;SDS011;3097;42.692;23.278;2022-08-19T10:49:04;5.35;;;4.85;;
6131;SDS011;3097;42.692;23.278;2022-08-19T10:51:30;5.30;;;5.00;;
6131;SDS011;3097;42.692;23.278;2022-08-19T10:54:16;5.05;;;4.75;;
6131;SDS011;3097;42.692;23.278;2022-08-19T10:56:42;5.63;;;5.22;;
6131;SDS011;3097;42.692;23.278;2022-08-19T10:59:18;5.45;;;5.03;;
6131;SDS011;3097;42.692;23.278;2022-08-19T11:01:46;5.30;;;4.97;;
6131;SDS011;3097;42.692;23.278;2022-08-19T11:04:13;5.32;;;5.03;;
6131;SDS011;3097;42.692;23.278;2022-08-19T11:06:42;5.20;;;4.90;;
6131;SDS011;3097;42.692;23.278;2022-08-19T11:09:10;6.20;;;5.80;;
6131;SDS011;3097;42.692;23.278;2022-08-19T11:11:37;5.30;;;4.82;;
6131;SDS011;3097;42.692;23.278;2022-08-19T11:14:08;6.28;;;5.88;;
6131;SDS011;3097;42.692;23.278;2022-08-19T11:16:39;5.43;;;5.10;;
6131;SDS011;3097;42.692;23.278;2022-08-19T11:19:07;5.55;;;5.25;;
6131;SDS011;3097;42.692;23.278;2022-08-19T11:21:36;5.53;;;5.22;;
6131;SDS011;3097;42.692;23.278;2022-08-19T11:24:10;5.10;;;4.80;;
6131;SDS011;3097;42.692;23.278;2022-08-19T11:26:38;6.78;;;6.18;;
6131;SDS011;3097;42.692;23.278;2022-08-19T11:29:05;5.63;;;5.22;;
6131;SDS011;3097;42.692;23.278;2022-08-19T11:31:36;5.28;;;4.97;;
6131;SDS011;3097;42.692;23.278;2022-08-19T11:34:05;5.20;;;4.90;;
6131;SDS011;3097;42.692;23.278;2022-08-19T11:36:32;5.15;;;4.85;;
6131;SDS011;3097;42.692;23.278;2022-08-19T11:38:59;5.65;;;5.25;;
6131;SDS011;3097;42.692;23.278;2022-08-19T11:41:26;4.90;;;4.60;;
6131;SDS011;3097;42.692;23.278;2022-08-19T11:43:52;5.30;;;4.90;;
6131;SDS011;3097;42.692;23.278;2022-08-19T11:46:20;5.10;;;4.70;;
6131;SDS011;3097;42.692;23.278;2022-08-19T11:48:47;4.95;;;4.65;;
6131;SDS011;3097;42.692;23.278;2022-08-19T11:51:16;5.55;;;5.15;;
6131;SDS011;3097;42.692;23.278;2022-08-19T11:53:44;5.30;;;4.90;;
6131;SDS011;3097;42.692;23.278;2022-08-19T11:56:10;5.43;;;5.13;;
6131;SDS011;3097;42.692;23.278;2022-08-19T11:58:37;4.68;;;4.40;;
6131;SDS011;3097;42.692;23.278;2022-08-19T12:01:07;4.90;;;4.60;;
6131;SDS011;3097;42.692;23.278;2022-08-19T12:03:34;5.45;;;5.15;;
6131;SDS011;3097;42.692;23.278;2022-08-19T12:06:20;4.90;;;4.60;;
6131;SDS011;3097;42.692;23.278;2022-08-19T12:08:53;5.47;;;5.18;;
6131;SDS011;3097;42.692;23.278;2022-08-19T12:11:20;5.55;;;5.22;;
6131;SDS011;3097;42.692;23.278;2022-08-19T12:13:46;5.55;;;5.25;;
6131;SDS011;3097;42.692;23.278;2022-08-19T12:16:17;5.20;;;4.90;;
6131;SDS011;3097;42.692;23.278;2022-08-19T12:18:44;5.72;;;5.32;;
6131;SDS011;3097;42.692;23.278;2022-08-19T12:21:12;5.43;;;5.10;;
6131;SDS011;3097;42.692;23.278;2022-08-19T12:23:41;5.57;;;5.22;;
6131;SDS011;3097;42.692;23.278;2022-08-19T12:26:10;5.13;;;4.63;;
6131;SDS011;3097;42.692;23.278;2022-08-19T12:28:36;5.10;;;4.80;;
6131;SDS011;3097;42.692;23.278;2022-08-19T12:31:02;5.25;;;4.90;;
6131;SDS011;3097;42.692;23.278;2022-08-19T12:33:28;5.60;;;5.20;;
6131;SDS011;3097;42.692;23.278;2022-08-19T12:35:53;5.45;;;5.15;;
6131;SDS011;3097;42.692;23.278;2022-08-19T12:38:20;5.88;;;5.47;;
6131;SDS011;3097;42.692;23.278;2022-08-19T12:40:49;5.28;;;4.97;;
6131;SDS011;3097;42.692;23.278;2022-08-19T12:43:17;5.40;;;5.10;;
6131;SDS011;3097;42.692;23.278;2022-08-19T12:45:45;5.30;;;5.00;;
6131;SDS011;3097;42.692;23.278;2022-08-19T12:48:11;5.55;;;5.13;;
6131;SDS011;3097;42.692;23.278;2022-08-19T12:50:40;5.15;;;4.85;;
6131;SDS011;3097;42.692;23.278;2022-08-19T12:53:08;5.57;;;5.18;;
6131;SDS011;3097;42.692;23.278;2022-08-19T12:55:33;5.60;;;5.20;;
6131;SDS011;3097;42.692;23.278;2022-08-19T12:57:59;5.82;;;5.28;;
6131;SDS011;3097;42.692;23.278;2022-08-19T13:00:27;5.57;;;5.28;;
6131;SDS011;3097;42.692;23.278;2022-08-19T13:02:53;5.65;;;5.25;;
6131;SDS011;3097;42.692;23.278;2022-08-19T13:05:21;5.60;;;5.30;;
6131;SDS011;3097;42.692;23.278;2022-08-19T13:07:51;5.53;;;5.20;;
6131;SDS011;3097;42.692;23.278;2022-08-19T13:10:21;5.47;;;5.13;;
6131;SDS011;3097;42.692;23.278;2022-08-19T13:12:48;5.25;;;4.88;;
6131;SDS011;3097;42.692;23.278;2022-08-19T13:15:14;5.80;;;5.50;;
6131;SDS011;3097;42.692;23.278;2022-08-19T13:17:44;5.95;;;5.57;;
6131;SDS011;3097;42.692;23.278;2022-08-19T13:20:11;5.20;;;4.90;;
6131;SDS011;3097;42.692;23.278;2022-08-19T13:22:37;5.13;;;4.82;;
6131;SDS011;3097;42.692;23.278;2022-08-19T13:25:04;5.25;;;4.93;;
6131;SDS011;3097;42.692;23.278;2022-08-19T13:27:30;6.03;;;5.63;;
6131;SDS011;3097;42.692;23.278;2022-08-19T13:29:56;5.28;;;4.88;;
6131;SDS011;3097;42.692;23.278;2022-08-19T13:32:40;5.25;;;4.85;;
6131;SDS011;3097;42.692;23.278;2022-08-19T13:35:24;5.00;;;4.70;;
6131;SDS011;3097;42.692;23.278;2022-08-19T13:37:49;5.45;;;5.15;;
6131;SDS011;3097;42.692;23.278;2022-08-19T13:40:22;5.32;;;5.03;;
6131;SDS011;3097;42.692;23.278;2022-08-19T13:42:52;5.75;;;5.38;;
6131;SDS011;3097;42.692;23.278;2022-08-19T13:45:20;5.80;;;5.35;;
6131;SDS011;3097;42.692;23.278;2022-08-19T13:47:49;5.55;;;5.25;;
6131;SDS011;3097;42.692;23.278;2022-08-19T13:50:18;6.00;;;5.60;;
6131;SDS011;3097;42.692;23.278;2022-08-19T13:52:46;6.22;;;5.82;;
6131;SDS011;3097;42.692;23.278;2022-08-19T13:55:13;6.13;;;5.68;;
6131;SDS011;3097;42.692;23.278;2022-08-19T13:57:39;5.55;;;5.25;;
6131;SDS011;3097;42.692;23.278;2022-08-19T14:00:10;6.00;;;5.60;;
6131;SDS011;3097;42.692;23.278;2022-08-19T14:02:42;5.85;;;5.28;;
6131;SDS011;3097;42.692;23.278;2022-08-19T14:05:09;5.53;;;5.22;;
6131;SDS011;3097;42.692;23.278;2022-08-19T14:07:37;5.78;;;5.47;;
6131;SDS011;3097;42.692;23.278;2022-08-19T14:10:06;6.20;;;5.70;;
6131;SDS011;3097;42.692;23.278;2022-08-19T14:12:34;5.90;;;5.50;;
6131;SDS011;3097;42.692;23.278;2022-08-19T14:15:01;5.90;;;5.55;;
6131;SDS011;3097;42.692;23.278;2022-08-19T14:17:28;5.50;;;5.20;;
6131;SDS011;3097;42.692;23.278;2022-08-19T14:19:57;5.47;;;5.18;;
6131;SDS011;3097;42.692;23.278;2022-08-19T14:22:24;5.68;;;5.38;;
6131;SDS011;3097;42.692;23.278;2022-08-19T14:24:49;5.88;;;5.47;;
6131;SDS011;3097;42.692;23.278;2022-08-19T14:27:15;5.95;;;5.55;;
6131;SDS011;3097;42.692;23.278;2022-08-19T14:29:40;5.93;;;5.53;;
6131;SDS011;3097;42.692;23.278;2022-08-19T14:32:06;5.60;;;5.30;;
6131;SDS011;3097;42.692;23.278;2022-08-19T14:34:31;5.93;;;5.53;;
6131;SDS011;3097;42.692;23.278;2022-08-19T14:36:58;5.97;;;5.57;;
6131;SDS011;3097;42.692;23.278;2022-08-19T14:39:24;5.32;;;5.03;;
6131;SDS011;3097;42.692;23.278;2022-08-19T14:41:50;6.40;;;5.90;;
6131;SDS011;3097;42.692;23.278;2022-08-19T14:44:15;6.00;;;5.60;;
6131;SDS011;3097;42.692;23.278;2022-08-19T14:46:41;5.72;;;5.32;;
6131;SDS011;3097;42.692;23.278;2022-08-19T14:49:06;5.57;;;5.18;;
6131;SDS011;3097;42.692;23.278;2022-08-19T14:51:32;5.50;;;5.07;;
6131;SDS011;3097;42.692;23.278;2022-08-19T14:53:58;5.80;;;5.45;;
6131;SDS011;3097;42.692;23.278;2022-08-19T14:56:25;5.25;;;4.95;;
6131;SDS011;3097;42.692;23.278;2022-08-19T14:58:53;6.70;;;6.10;;
6131;SDS011;3097;42.692;23.278;2022-08-19T15:01:19;5.90;;;5.60;;
6131;SDS011;3097;42.692;23.278;2022-08-19T15:03:47;5.68;;;5.38;;
6131;SDS011;3097;42.692;23.278;2022-08-19T15:06:13;6.40;;;5.97;;
6131;SDS011;3097;42.692;23.278;2022-08-19T15:08:40;5.57;;;5.28;;
6131;SDS011;3097;42.692;23.278;2022-08-19T15:11:13;5.47;;;5.18;;
6131;SDS011;3097;42.692;23.278;2022-08-19T15:13:41;5.75;;;5.45;;
6131;SDS011;3097;42.692;23.278;2022-08-19T15:16:08;5.90;;;5.50;;